To NAV CANADA Home Page Login to a new session Search on AWWS site Feedback and Comments Disclaimer Vers la page française équivalente Tips FAQ What's new on the site To the Forecasts and Observations / NOTAM section To "File a Flight Plan" website Publications and other links Update of the User's profile FIC Telephone Numbers My Weather Data Folder Route Weather Data Regional Weather Data Local Weather Data To the Forecasts and Observations / NOTAM section
Request Generated 12/04/2016 at 22:24:54 UTC . Weather information available at that time is displayed.

METAR/TAF

SARNIA (CHRIS HADFIELD)/ON    (show WxCam)

METAR CYZR 042200Z AUTO 12006KT 9SM BKN033 OVC090 03/M00 A3003 RMK
SLP177=
METAR CYZR 042100Z AUTO 12007KT 9SM BKN025 OVC034 03/M01 A3004 RMK
SLP180=
METAR CYZR 042000Z AUTO 15006KT 9SM OVC027 03/M01 A3007 RMK SLP189=

TAF CYZR 041941Z 0420/0503 17008KT P6SM OVC030 TEMPO 0500/0503 3SM
-SNRA BR BKN008 OVC030
RMK FCST BASED ON AUTO OBS. NXT FCST WILL BE ISSUED AT 051245Z=
Your time UTC time
Weather data provided by Environment Canada and NAV CANADA